KUGNKRYV

Guest
Details From KUGN - WAUKEGAN RGNL
To KRYV - Watertown Muni
Flight Number -
Tags generated
Created
Modified
Stats Distance 59 nm / 109 km
Max Altitude 900 ft / 274 m
Waypoints 3
Social Downloads 0
Likes 0
Share VATSIM

Download

Looking for another format? Having issues loading an existing format? Contact us
Advertisement - Login to hide

Notes

Basic altitude profile: - Ascent Rate: 2500ft/min - Ascent Speed: 250kts - Cruise Altitude: 35000ft - Cruise Speed: 420kts - Descent Rate: 1500ft/min - Descent Speed: 250kts Options: - Use NATs: yes - Use PACOTS: yes - Use low airways: yes - Use high airways: yes

Route

KUGN WAITS KRYV

ID Type Via Altitude Latitude Longitude Leg Dist Tot Dist Heading (true) Name
O KUGN APT - 0 ft / 0 m 42.42240˚ -87.86811˚ - 0 nm - WAUKEGAN RGNL
WAITS FIX - 900 ft / 274 m 43.12730˚ -88.63754˚ 54 nm 54 nm 322° / 321° -
O KRYV APT - 0 ft / 0 m 43.16985˚ -88.72295˚ 4 nm 58 nm 304° / 304° Watertown Muni

Altitude Profile

Advertisement - Login to hide

KUGN

Details ICAO KUGN (UGN)
Name WAUKEGAN RGNL
Region United States
Timezone America/Chicago (UTC-6.0)
Stats Elevation 727 ft / 222 m (AMSL)
Location 42.422401° -87.868107°
Runways 2
Magnetic Variation 3.832° W

METAR

KUGN 110155Z 32006KT 10SM OVC025 M03/M07 A3006 RMK AO2 SLP196 LAST T10281072

Decode

TAF

Not found

Departure Runways

ID Width Length Bearing (true) Bearing (mag) Surface Threshold Offset Overrun Length
05 150 ft / 46 m 5,994 ft / 1,827 m 48.35° 52.18° Asphalt 0 ft / 0 m 0 ft / 0 m
14 75 ft / 23 m 3,751 ft / 1,143 m 144.30° 148.13° Asphalt 500 ft / 152 m 0 ft / 0 m
23 150 ft / 46 m 5,994 ft / 1,827 m 228.36° 232.19° Asphalt 0 ft / 0 m 0 ft / 0 m
32 75 ft / 23 m 3,751 ft / 1,143 m 324.30° 328.13° Asphalt 0 ft / 0 m 0 ft / 0 m

KRYV

Details ICAO KRYV
Name Watertown Muni
Region United States
Timezone America/Chicago (UTC-6.0)
Stats Elevation 833 ft / 254 m (AMSL)
Location 43.169845° -88.722947°
Runways 2
Magnetic Variation 3.265° W

METAR

KRYV 110235Z AUTO 30003KT 10SM OVC026 M04/M07 A3006 RMK AO2 T10361072

Decode

TAF

Not found

Destination Runways

ID Width Length Bearing (true) Bearing (mag) Surface Threshold Offset Overrun Length
05 75 ft / 23 m 4,425 ft / 1,349 m 53.09° 56.35° Asphalt 200 ft / 61 m 400 ft / 122 m
11 75 ft / 23 m 2,817 ft / 859 m 113.31° 116.57° Asphalt 0 ft / 0 m 0 ft / 0 m
23 75 ft / 23 m 4,425 ft / 1,349 m 233.10° 236.36° Asphalt 0 ft / 0 m 400 ft / 122 m
29 75 ft / 23 m 2,817 ft / 859 m 293.32° 296.58° Asphalt 0 ft / 0 m 0 ft / 0 m